createdAt,value
2018-11-27T00:00:54.661Z,5.76
2018-11-27T00:03:43.811Z,5.66
2018-11-27T00:06:24.789Z,5.64
2018-11-27T00:09:01.256Z,5.66
2018-11-27T00:11:40.902Z,5.73
2018-11-27T00:14:17.883Z,5.75
2018-11-27T00:16:57.663Z,5.70
2018-11-27T00:19:36.263Z,5.68
2018-11-27T00:22:10.044Z,5.66
2018-11-27T00:24:41.149Z,5.55
2018-11-27T00:27:15.388Z,5.52
2018-11-27T00:29:47.488Z,5.48
2018-11-27T00:32:28.686Z,5.49
2018-11-27T00:35:07.277Z,5.50
2018-11-27T00:37:48.544Z,5.47
2018-11-27T00:40:27.170Z,5.43
2018-11-27T00:43:06.407Z,5.49
2018-11-27T00:45:43.043Z,5.54
2018-11-27T00:48:21.772Z,5.51
2018-11-27T00:50:57.076Z,5.43
2018-11-27T00:53:38.620Z,5.35
2018-11-27T00:56:20.207Z,5.34
2018-11-27T00:59:11.825Z,5.34
2018-11-27T01:01:57.718Z,5.29
2018-11-27T01:04:45.552Z,5.31
2018-11-27T01:07:16.409Z,5.31
2018-11-27T01:10:04.900Z,5.32
2018-11-27T01:12:34.648Z,5.31
2018-11-27T01:15:06.220Z,5.35
2018-11-27T01:17:38.364Z,5.31
2018-11-27T01:20:15.553Z,5.31
2018-11-27T01:22:45.531Z,5.36
2018-11-27T01:25:16.192Z,5.33
2018-11-27T01:27:45.937Z,5.32
2018-11-27T01:30:18.568Z,5.38
2018-11-27T01:32:49.854Z,5.38
2018-11-27T01:35:26.345Z,5.36
2018-11-27T01:37:56.962Z,5.35
2018-11-27T01:40:31.874Z,5.35
2018-11-27T01:43:22.610Z,5.39
2018-11-27T01:45:54.628Z,5.41
2018-11-27T01:48:25.055Z,5.36
2018-11-27T01:50:55.079Z,5.35
2018-11-27T01:53:25.224Z,5.35
2018-11-27T01:55:55.793Z,5.32
2018-11-27T01:58:27.014Z,5.32
2018-11-27T02:00:57.751Z,5.36
2018-11-27T02:03:31.823Z,5.38
2018-11-27T02:06:07.986Z,5.39
2018-11-27T02:08:44.866Z,5.37
2018-11-27T02:11:16.827Z,5.34
2018-11-27T02:13:48.516Z,5.34
2018-11-27T02:16:18.905Z,5.34
2018-11-27T02:18:48.928Z,5.34
2018-11-27T02:21:20.176Z,5.30
2018-11-27T02:23:49.949Z,5.32
2018-11-27T02:26:20.141Z,5.33
2018-11-27T02:28:49.785Z,5.31
2018-11-27T02:31:21.042Z,5.28
2018-11-27T02:33:56.409Z,5.34
2018-11-27T02:36:27.183Z,5.43
2018-11-27T02:38:57.427Z,5.53
2018-11-27T02:41:28.031Z,5.60
2018-11-27T02:43:58.460Z,5.57
2018-11-27T02:46:28.271Z,5.54
2018-11-27T02:48:57.739Z,5.49
2018-11-27T02:51:29.939Z,5.40
2018-11-27T02:53:59.814Z,5.35
2018-11-27T02:56:29.954Z,5.37
2018-11-27T02:59:00.715Z,5.44
2018-11-27T03:01:35.468Z,5.51
2018-11-27T03:04:07.190Z,5.54
2018-11-27T03:06:37.601Z,5.62
2018-11-27T03:09:11.125Z,5.66
2018-11-27T03:11:40.726Z,5.60
2018-11-27T03:14:10.433Z,5.55
2018-11-27T03:16:42.793Z,5.50
2018-11-27T03:19:12.732Z,5.44
2018-11-27T03:21:43.240Z,5.43
2018-11-27T03:24:13.575Z,5.36
2018-11-27T03:26:44.662Z,5.36
2018-11-27T03:29:17.084Z,5.41
2018-11-27T03:31:48.273Z,5.39
2018-11-27T03:34:19.740Z,5.39
2018-11-27T03:36:51.844Z,5.39
2018-11-27T03:39:22.262Z,5.37
2018-11-27T03:41:59.961Z,5.36
2018-11-27T03:44:30.667Z,5.35
2018-11-27T03:47:00.828Z,5.32
2018-11-27T03:49:30.947Z,5.27
2018-11-27T03:52:01.454Z,5.19
2018-11-27T03:54:31.996Z,5.17
2018-11-27T03:57:02.535Z,5.11
2018-11-27T03:59:32.396Z,5.03
2018-11-27T04:02:02.295Z,5.00
2018-11-27T04:04:31.995Z,4.99
2018-11-27T04:07:04.987Z,5.01
2018-11-27T04:09:34.731Z,5.00
2018-11-27T04:12:04.717Z,4.98
2018-11-27T04:14:35.589Z,5.00
2018-11-27T04:17:12.974Z,5.01
2018-11-27T04:19:52.486Z,4.98
2018-11-27T04:22:28.951Z,4.93
2018-11-27T04:24:59.813Z,4.90
2018-11-27T04:27:31.346Z,4.90
2018-11-27T04:30:03.615Z,4.89
2018-11-27T04:32:36.821Z,4.85
2018-11-27T04:35:11.908Z,4.80
2018-11-27T04:37:41.811Z,4.73
2018-11-27T04:40:17.596Z,4.68
2018-11-27T04:42:47.581Z,4.66
2018-11-27T04:45:21.284Z,4.62
2018-11-27T04:47:51.861Z,4.63
2018-11-27T04:50:21.633Z,4.60
2018-11-27T04:52:51.791Z,4.57
2018-11-27T04:55:22.604Z,4.49
2018-11-27T04:57:55.820Z,4.43
2018-11-27T05:00:27.898Z,4.38
2018-11-27T05:02:57.878Z,4.31
2018-11-27T05:05:28.264Z,4.23
2018-11-27T05:07:58.340Z,4.21
2018-11-27T05:10:28.110Z,4.19
2018-11-27T05:12:58.458Z,4.15
2018-11-27T05:15:28.250Z,4.08
2018-11-27T05:17:59.834Z,4.03
2018-11-27T05:20:30.260Z,3.99
2018-11-27T05:23:00.008Z,3.99
2018-11-27T05:25:30.822Z,4.06
2018-11-27T05:28:01.962Z,4.19
2018-11-27T05:30:31.762Z,4.21
2018-11-27T05:33:03.509Z,4.16
2018-11-27T05:35:35.045Z,4.12
2018-11-27T05:38:05.252Z,4.02
2018-11-27T05:40:43.637Z,3.99
2018-11-27T05:43:26.548Z,3.86
2018-11-27T05:45:59.923Z,3.79
2018-11-27T05:48:47.618Z,3.68
2018-11-27T05:51:28.767Z,3.63
2018-11-27T05:53:59.817Z,3.69
2018-11-27T05:56:40.178Z,3.71
2018-11-27T05:59:16.415Z,3.66
2018-11-27T06:01:57.881Z,3.58
2018-11-27T06:07:10.602Z,3.50
2018-11-27T06:09:46.653Z,3.46
2018-11-27T06:12:20.916Z,3.42
2018-11-27T06:14:59.237Z,3.40
2018-11-27T06:17:32.101Z,3.36
2018-11-27T06:20:24.462Z,3.33
2018-11-27T06:23:00.461Z,3.38
2018-11-27T06:25:34.809Z,3.41
2018-11-27T06:28:13.584Z,3.46
2018-11-27T06:30:57.088Z,3.55
2018-11-27T06:33:26.947Z,3.54
2018-11-27T06:36:00.150Z,3.59
2018-11-27T06:38:39.124Z,3.59
2018-11-27T06:41:22.373Z,3.49
2018-11-27T06:44:02.059Z,3.50
2018-11-27T06:46:42.741Z,3.47
2018-11-27T06:49:17.682Z,3.50
2018-11-27T06:51:53.004Z,3.54
2018-11-27T06:54:45.153Z,3.52
2018-11-27T06:57:16.813Z,3.39
2018-11-27T06:59:47.189Z,3.43
2018-11-27T07:05:16.414Z,3.63
2018-11-27T07:07:47.678Z,3.66
2018-11-27T07:10:22.864Z,3.70
2018-11-27T07:12:57.497Z,3.76
2018-11-27T07:15:28.304Z,3.85
2018-11-27T07:17:58.552Z,3.82
2018-11-27T07:20:28.307Z,3.72
2018-11-27T07:22:59.371Z,3.68
2018-11-27T07:25:29.168Z,3.75
2018-11-27T07:27:59.162Z,3.75
2018-11-27T07:30:28.944Z,3.80
2018-11-27T07:33:09.260Z,3.90
2018-11-27T07:35:39.044Z,4.00
2018-11-27T07:38:10.666Z,4.00
2018-11-27T07:40:40.779Z,4.04
2018-11-27T07:43:14.735Z,4.12
2018-11-27T07:45:44.375Z,4.16
2018-11-27T07:48:14.826Z,4.16
2018-11-27T07:50:45.230Z,4.27
2018-11-27T07:53:15.203Z,4.20
2018-11-27T07:55:48.747Z,4.10
2018-11-27T07:58:24.822Z,3.93
2018-11-27T08:00:59.944Z,3.83
2018-11-27T08:11:15.553Z,3.62
2018-11-27T08:13:52.245Z,3.64
2018-11-27T08:16:28.719Z,3.72
2018-11-27T08:19:02.219Z,3.81
2018-11-27T08:21:41.797Z,4.02
2018-11-27T08:24:28.884Z,4.03
2018-11-27T08:27:00.592Z,4.12
2018-11-27T08:29:32.472Z,4.20
2018-11-27T08:32:04.740Z,4.29
2018-11-27T08:34:48.849Z,4.31
2018-11-27T08:37:36.693Z,4.27
2018-11-27T08:40:21.098Z,4.33
2018-11-27T08:43:03.568Z,4.38
2018-11-27T08:45:49.519Z,4.49
2018-11-27T08:48:35.108Z,4.44
2018-11-27T08:51:13.081Z,4.51
2018-11-27T08:53:49.981Z,4.45
2018-11-27T08:56:36.178Z,4.52
2018-11-27T08:59:07.880Z,4.53
2018-11-27T09:01:39.068Z,4.41
2018-11-27T09:04:12.118Z,4.25
2018-11-27T09:06:43.122Z,4.21
2018-11-27T09:09:17.102Z,4.25
2018-11-27T09:11:47.383Z,4.34
2018-11-27T09:14:20.424Z,4.48
2018-11-27T09:16:52.747Z,4.51
2018-11-27T09:19:33.264Z,4.53
2018-11-27T09:22:03.458Z,4.53
2018-11-27T09:24:34.403Z,4.52
2018-11-27T09:27:04.334Z,4.48
2018-11-27T09:29:35.562Z,4.49
2018-11-27T09:32:05.448Z,4.49
2018-11-27T09:34:39.273Z,4.60
2018-11-27T09:37:12.498Z,4.66
2018-11-27T09:39:44.331Z,4.77
2018-11-27T09:42:33.300Z,4.81
2018-11-27T09:45:18.842Z,4.98
2018-11-27T09:48:00.236Z,5.06
2018-11-27T09:50:44.321Z,5.10
2018-11-27T09:53:24.190Z,5.18
2018-11-27T09:55:58.617Z,5.06
2018-11-27T09:58:41.402Z,5.00
2018-11-27T10:01:46.115Z,5.04
2018-11-27T10:04:31.992Z,5.14
2018-11-27T10:07:17.997Z,5.16
2018-11-27T10:10:04.062Z,5.14
2018-11-27T10:12:53.305Z,4.99
2018-11-27T10:15:47.751Z,4.81
2018-11-27T10:18:19.603Z,4.68
2018-11-27T10:20:52.975Z,4.69
2018-11-27T10:23:28.543Z,4.63
2018-11-27T10:25:59.360Z,4.62
2018-11-27T10:28:31.937Z,4.45
2018-11-27T10:30:59.048Z,4.37
2018-11-27T10:33:40.346Z,4.44
2018-11-27T10:36:22.899Z,4.50
2018-11-27T10:39:00.930Z,4.69
2018-11-27T10:41:32.530Z,4.77
2018-11-27T10:44:04.223Z,4.81
2018-11-27T10:46:34.897Z,4.80
2018-11-27T10:49:25.865Z,4.70
2018-11-27T10:52:16.759Z,4.70
2018-11-27T10:55:08.243Z,4.77
2018-11-27T10:57:39.722Z,4.78
2018-11-27T11:00:27.230Z,4.83
2018-11-27T11:03:07.558Z,4.87
2018-11-27T11:05:45.533Z,4.93
2018-11-27T11:08:33.242Z,4.99
2018-11-27T11:11:05.798Z,5.07
2018-11-27T11:13:41.378Z,5.12
2018-11-27T11:16:15.029Z,5.24
2018-11-27T11:18:54.487Z,5.33
2018-11-27T11:21:26.642Z,5.25
2018-11-27T11:23:56.747Z,5.42
2018-11-27T11:26:29.602Z,5.55
2018-11-27T11:29:29.099Z,5.71
2018-11-27T11:32:09.121Z,5.80
2018-11-27T11:34:40.019Z,5.94
2018-11-27T11:37:11.122Z,5.92
2018-11-27T11:39:45.886Z,5.66
2018-11-27T11:42:30.787Z,5.54
2018-11-27T11:45:02.059Z,5.47
2018-11-27T11:47:32.494Z,5.33
2018-11-27T11:50:04.182Z,5.42
2018-11-27T11:52:35.168Z,5.42
2018-11-27T11:55:04.768Z,5.48
2018-11-27T11:57:37.414Z,5.48
2018-11-27T12:00:20.009Z,5.44
2018-11-27T12:02:55.680Z,5.38
2018-11-27T12:05:25.598Z,5.37
2018-11-27T12:07:57.152Z,5.28
2018-11-27T12:13:16.669Z,5.14
2018-11-27T12:15:57.017Z,5.01
2018-11-27T12:18:27.424Z,5.20
2018-11-27T12:20:59.870Z,5.25
2018-11-27T12:23:30.839Z,5.12
2018-11-27T12:26:02.297Z,5.05
2018-11-27T12:28:33.283Z,5.11
2018-11-27T12:31:03.969Z,5.11
2018-11-27T12:33:34.720Z,5.10
2018-11-27T12:36:04.730Z,5.05
2018-11-27T12:38:35.228Z,4.99
2018-11-27T12:41:10.188Z,4.89
2018-11-27T12:43:36.700Z,4.87
2018-11-27T12:46:07.860Z,4.85
2018-11-27T12:48:38.810Z,4.80
2018-11-27T12:51:10.097Z,4.86
2018-11-27T12:53:39.657Z,4.98
2018-11-27T12:56:11.593Z,5.12
2018-11-27T12:58:43.327Z,5.29
2018-11-27T13:01:13.126Z,5.30
2018-11-27T13:03:43.458Z,5.26
2018-11-27T13:06:13.330Z,5.32
2018-11-27T13:08:43.634Z,5.37
2018-11-27T13:11:13.547Z,5.26
2018-11-27T13:13:45.954Z,5.13
2018-11-27T13:16:18.248Z,4.95
2018-11-27T13:18:52.330Z,5.02
2018-11-27T13:21:22.976Z,5.16
2018-11-27T13:23:53.249Z,5.07
2018-11-27T13:29:36.425Z,4.94
2018-11-27T13:32:13.393Z,4.83
2018-11-27T13:34:46.496Z,4.80
2018-11-27T13:37:13.654Z,4.91
2018-11-27T13:39:44.079Z,4.89
2018-11-27T13:42:15.929Z,4.94
2018-11-27T13:44:50.587Z,4.87
2018-11-27T13:47:21.767Z,4.70
2018-11-27T13:49:51.690Z,4.66
2018-11-27T13:52:22.335Z,4.64
2018-11-27T13:54:54.803Z,4.52
2018-11-27T13:57:27.127Z,4.41
2018-11-27T13:59:59.044Z,4.36
2018-11-27T14:02:31.278Z,4.42
2018-11-27T14:07:45.186Z,4.69
2018-11-27T14:10:27.061Z,4.67
2018-11-27T14:12:57.260Z,4.70
2018-11-27T14:15:31.290Z,4.61
2018-11-27T14:18:10.033Z,4.57
2018-11-27T14:20:46.008Z,4.60
2018-11-27T14:23:21.456Z,4.57
2018-11-27T14:25:53.860Z,4.41
2018-11-27T14:28:23.857Z,4.32
2018-11-27T14:31:08.308Z,4.32
2018-11-27T14:33:47.328Z,4.20
2018-11-27T14:36:33.685Z,4.15
2018-11-27T14:39:10.513Z,4.07
2018-11-27T14:41:44.596Z,4.05
2018-11-27T14:44:30.475Z,4.07
2018-11-27T14:47:02.140Z,4.12
2018-11-27T14:49:39.222Z,4.19
2018-11-27T14:52:22.294Z,4.24
2018-11-27T14:56:25.854Z,4.28
2018-11-27T14:59:07.027Z,4.19
2018-11-27T15:01:57.143Z,4.11
2018-11-27T15:04:47.950Z,4.08
2018-11-27T15:07:27.257Z,4.02
2018-11-27T15:10:03.894Z,3.97
2018-11-27T15:12:59.656Z,3.97
2018-11-27T15:15:37.977Z,3.97
2018-11-27T15:18:17.513Z,3.94
2018-11-27T15:20:48.760Z,3.94
2018-11-27T15:23:43.619Z,3.99
2018-11-27T22:02:03.936Z,1.78
2018-11-27T22:04:33.823Z,1.81
2018-11-27T22:07:04.587Z,1.78
2018-11-27T22:09:35.357Z,1.72
2018-11-27T22:12:08.991Z,1.67
2018-11-27T22:14:41.130Z,1.62
2018-11-27T22:17:13.743Z,1.58
2018-11-27T22:19:48.071Z,1.45
2018-11-27T22:22:20.347Z,1.38
2018-11-27T22:24:52.192Z,1.36
2018-11-27T22:27:23.768Z,1.37
2018-11-27T22:30:04.912Z,1.38
2018-11-27T22:32:37.622Z,1.34
2018-11-27T22:35:13.093Z,1.33
2018-11-27T22:37:43.846Z,1.35
2018-11-27T22:40:24.633Z,1.38
2018-11-27T22:42:58.791Z,1.30
2018-11-27T22:45:40.787Z,1.16
2018-11-27T22:48:13.197Z,1.03
2018-11-27T22:50:46.767Z,0.99
2018-11-27T22:53:19.913Z,0.96
2018-11-27T22:55:51.924Z,0.97
2018-11-27T22:58:24.157Z,1.06
2018-11-27T23:00:54.068Z,1.12
2018-11-27T23:03:26.564Z,1.13
2018-11-27T23:05:57.622Z,1.14
2018-11-27T23:08:28.352Z,1.18
2018-11-27T23:10:58.325Z,1.21
2018-11-27T23:13:31.175Z,1.24
2018-11-27T23:16:01.132Z,1.28
2018-11-27T23:18:33.891Z,1.29
2018-11-27T23:21:05.830Z,1.31
2018-11-27T23:23:36.712Z,1.33
2018-11-27T23:26:10.120Z,1.37
2018-11-27T23:28:47.104Z,1.40
2018-11-27T23:31:18.657Z,1.39
2018-11-27T23:33:53.137Z,1.38
2018-11-27T23:36:24.350Z,1.35
2018-11-27T23:38:54.469Z,1.35
2018-11-27T23:41:29.091Z,1.33
2018-11-27T23:44:09.889Z,1.28
2018-11-27T23:46:44.857Z,1.36
2018-11-27T23:49:18.363Z,1.31
2018-11-27T23:51:51.467Z,1.16
2018-11-27T23:54:24.768Z,1.04
2018-11-27T23:56:56.960Z,0.99
2018-11-27T23:59:27.939Z,0.89
